Time;durP1;ratioP1;P1;durP2;ratioP2;P2;SDS_P1;SDS_P2;PMS_P1;PMS_P2;Temp;Humidity;BMP_temperature;BMP_pressure;BME280_temperature;BME280_humidity;BME280_pressure;Samples;Min_cycle;Max_cycle;Signal;HPM_P1;HPM_P2
2023/09/06 00:00:42;;;;;;;5.83;4.70;;;;;;;;;;4972613;28;20479;-91
2023/09/06 03:29:03;;;;;;;6.87;4.67;;;;;;;;;;5004185;28;21082;-90
2023/09/06 03:31:33;;;;;;;7.20;5.40;;;;;;;;;;4987036;28;20425;-91
2023/09/06 03:33:59;;;;;;;4.90;4.37;;;;;;;;;;4989380;28;20508;-90
2023/09/06 03:36:25;;;;;;;7.20;4.80;;;;;;;;;;4928731;29;20502;-91
2023/09/06 03:38:51;;;;;;;5.20;4.13;;;;;;;;;;4913609;29;20863;-91
2023/09/06 03:41:18;;;;;;;6.47;4.70;;;;;;;;;;4925523;29;20449;-89
2023/09/06 03:43:45;;;;;;;7.30;4.80;;;;;;;;;;4913474;29;20423;-89
2023/09/06 03:46:13;;;;;;;8.80;5.23;;;;;;;;;;4911787;29;20428;-90
2023/09/06 03:48:40;;;;;;;6.43;4.10;;;;;;;;;;4931842;29;20439;-92
2023/09/06 03:51:07;;;;;;;5.87;4.63;;;;;;;;;;4912713;29;20432;-93
2023/09/06 20:52:39;;;;;;;8.30;5.60;;;;;;;;;;799732;22;20812;-88
2023/09/06 20:55:05;;;;;;;6.70;5.33;;;;;;;;;;4972775;28;20453;-90
2023/09/06 20:57:31;;;;;;;6.83;4.63;;;;;;;;;;4970945;28;20877;-91
2023/09/06 20:59:58;;;;;;;5.97;4.30;;;;;;;;;;4969420;28;20433;-90
2023/09/06 21:02:24;;;;;;;7.43;4.47;;;;;;;;;;4969839;28;20405;-90
2023/09/06 21:04:51;;;;;;;5.40;4.57;;;;;;;;;;4980375;28;20444;-90
2023/09/06 21:07:17;;;;;;;4.97;4.33;;;;;;;;;;4984221;28;20508;-91
2023/09/06 21:09:43;;;;;;;8.73;5.50;;;;;;;;;;4971591;28;20445;-90
2023/09/06 21:12:13;;;;;;;7.00;5.20;;;;;;;;;;4987908;28;20436;-91
2023/09/06 21:14:42;;;;;;;8.57;4.93;;;;;;;;;;4985176;28;20418;-92
2023/09/06 21:17:07;;;;;;;10.47;5.70;;;;;;;;;;4972124;28;20413;-90
2023/09/06 21:19:33;;;;;;;8.27;4.90;;;;;;;;;;4966232;28;20805;-90
2023/09/06 21:21:59;;;;;;;6.30;5.70;;;;;;;;;;4967679;28;20453;-90
2023/09/06 21:24:28;;;;;;;9.03;5.40;;;;;;;;;;4937637;29;20450;-90
2023/09/06 21:26:54;;;;;;;8.43;5.10;;;;;;;;;;4945035;28;20501;-91
2023/09/06 21:29:22;;;;;;;5.87;5.27;;;;;;;;;;4927684;29;20549;-90
2023/09/06 21:31:47;;;;;;;5.80;5.00;;;;;;;;;;4921669;29;20440;-90
2023/09/06 21:34:48;;;;;;;8.00;5.70;;;;;;;;;;4943622;29;20445;-92
2023/09/06 21:37:15;;;;;;;7.03;5.47;;;;;;;;;;4949947;29;20411;-91
2023/09/06 21:39:42;;;;;;;9.30;6.37;;;;;;;;;;4933985;29;20518;-91
2023/09/06 21:42:09;;;;;;;7.37;6.67;;;;;;;;;;4946962;29;20435;-90
2023/09/06 21:44:37;;;;;;;8.33;6.20;;;;;;;;;;4942757;28;20430;-91
2023/09/06 21:47:03;;;;;;;8.50;7.27;;;;;;;;;;4926231;29;20443;-90
2023/09/06 21:49:31;;;;;;;8.97;7.43;;;;;;;;;;4911607;29;20443;-92
2023/09/06 21:51:57;;;;;;;8.60;6.47;;;;;;;;;;4908072;29;20846;-92
2023/09/06 21:54:23;;;;;;;10.70;6.43;;;;;;;;;;4868014;29;20441;-90
2023/09/06 21:56:49;;;;;;;6.90;6.07;;;;;;;;;;4894648;29;20446;-91
2023/09/06 21:59:16;;;;;;;5.27;4.77;;;;;;;;;;4898077;29;20480;-91
2023/09/06 22:01:43;;;;;;;5.00;4.60;;;;;;;;;;4897408;29;20437;-91
2023/09/06 22:04:09;;;;;;;7.33;4.57;;;;;;;;;;4904811;29;20442;-92
2023/09/06 22:06:35;;;;;;;11.20;5.13;;;;;;;;;;4903438;29;20498;-92
2023/09/06 22:09:02;;;;;;;5.73;4.90;;;;;;;;;;4881485;29;20433;-92
2023/09/06 22:11:29;;;;;;;6.90;6.30;;;;;;;;;;4889514;29;20413;-91
2023/09/06 22:13:55;;;;;;;6.00;4.10;;;;;;;;;;4895513;29;20416;-92
2023/09/06 22:16:21;;;;;;;6.07;3.67;;;;;;;;;;4877676;29;20427;-91
2023/09/06 22:18:47;;;;;;;4.40;4.03;;;;;;;;;;4926871;29;20459;-92
2023/09/06 22:21:13;;;;;;;6.00;4.07;;;;;;;;;;4946644;28;20895;-92
2023/09/06 22:23:40;;;;;;;4.00;3.60;;;;;;;;;;4958722;28;20438;-92
2023/09/06 22:26:06;;;;;;;4.73;4.27;;;;;;;;;;4982523;28;20938;-90
2023/09/06 22:28:33;;;;;;;6.23;4.70;;;;;;;;;;4960542;28;20468;-92
2023/09/06 22:31:00;;;;;;;5.03;4.03;;;;;;;;;;4987667;28;20421;-90
2023/09/06 22:33:28;;;;;;;4.00;3.57;;;;;;;;;;4970708;28;21150;-91
2023/09/06 22:35:54;;;;;;;6.10;5.13;;;;;;;;;;4973330;28;20429;-91
2023/09/06 22:38:20;;;;;;;4.90;4.03;;;;;;;;;;4955926;28;20481;-91
2023/09/06 22:40:46;;;;;;;5.17;4.60;;;;;;;;;;4979370;28;20425;-91
2023/09/06 22:43:12;;;;;;;5.50;4.37;;;;;;;;;;4971132;28;20429;-92
2023/09/06 22:45:38;;;;;;;4.33;3.93;;;;;;;;;;4978880;28;20781;-91
2023/09/06 22:48:07;;;;;;;5.93;4.13;;;;;;;;;;4970828;28;20751;-92
2023/09/06 22:50:36;;;;;;;4.87;3.43;;;;;;;;;;4987808;28;20449;-91
2023/09/06 22:53:02;;;;;;;3.93;3.50;;;;;;;;;;4985026;28;20441;-91
2023/09/06 22:55:30;;;;;;;6.93;4.33;;;;;;;;;;4970818;28;20548;-90
2023/09/06 22:57:56;;;;;;;9.30;3.50;;;;;;;;;;4926058;28;20475;-91
2023/09/06 23:00:22;;;;;;;4.70;4.03;;;;;;;;;;4926233;29;20440;-91
2023/09/06 23:02:50;;;;;;;4.10;3.80;;;;;;;;;;4931214;29;20455;-91
2023/09/06 23:05:23;;;;;;;4.03;3.43;;;;;;;;;;4914436;29;20435;-91
2023/09/06 23:07:49;;;;;;;5.60;2.93;;;;;;;;;;4943363;29;20447;-91
2023/09/06 23:10:27;;;;;;;3.27;2.90;;;;;;;;;;4913678;29;20428;-90
2023/09/06 23:12:59;;;;;;;5.23;2.70;;;;;;;;;;5086718;23;20495;-90
2023/09/06 23:15:28;;;;;;;4.37;3.97;;;;;;;;;;4969356;28;20453;-90
2023/09/06 23:17:55;;;;;;;5.00;3.60;;;;;;;;;;4963590;28;20461;-91
2023/09/06 23:20:30;;;;;;;4.20;3.23;;;;;;;;;;4967377;28;20413;-90
2023/09/06 23:23:04;;;;;;;3.90;3.40;;;;;;;;;;4948723;28;20415;-90
2023/09/06 23:25:36;;;;;;;4.00;3.20;;;;;;;;;;4953266;29;20435;-90
2023/09/06 23:28:11;;;;;;;4.30;3.63;;;;;;;;;;4944681;28;20482;-91
2023/09/06 23:30:42;;;;;;;3.90;3.50;;;;;;;;;;4959643;28;20421;-90
2023/09/06 23:33:14;;;;;;;4.80;3.23;;;;;;;;;;4957868;28;20434;-90
2023/09/06 23:35:41;;;;;;;4.17;3.27;;;;;;;;;;4954485;28;20422;-89
2023/09/06 23:38:07;;;;;;;4.13;3.47;;;;;;;;;;4946121;28;20470;-91
2023/09/06 23:40:34;;;;;;;4.40;3.20;;;;;;;;;;4958751;28;20426;-92
2023/09/06 23:43:00;;;;;;;3.03;2.63;;;;;;;;;;4949028;28;21074;-90
2023/09/06 23:45:42;;;;;;;3.30;2.57;;;;;;;;;;4959344;28;20426;-90
2023/09/06 23:48:11;;;;;;;3.37;3.00;;;;;;;;;;4960975;28;20967;-91
2023/09/06 23:50:37;;;;;;;4.57;3.60;;;;;;;;;;4952618;28;20438;-90
2023/09/06 23:53:03;;;;;;;4.67;3.57;;;;;;;;;;4968887;28;20460;-90
2023/09/06 23:55:31;;;;;;;4.13;3.70;;;;;;;;;;4956516;28;20498;-91
2023/09/06 23:58:11;;;;;;;4.47;3.10;;;;;;;;;;4997403;28;20827;-91
